This is the latest recevied weather packets stored in our database for station/object KF0TNT. If no packets are shown the sender has not sent any weather packets the latest 10 day(s).
| Time | Temp. | Humidity | Pressure | Rain* | Wind** | Luminosity | Snow |
|---|---|---|---|---|---|---|---|
| 1777491185 | 3.89° C | 91% | 1020.9 hPa | 1.27 mm | - | 96 W/m² | - |
| 1777490880 | 3.89° C | 91% | 1021 hPa | 1.78 mm | - | 99 W/m² | - |
| 1777490576 | 3.89° C | 89% | 1021.1 hPa | 1.27 mm | - | 80 W/m² | - |
| 1777490272 | 3.89° C | 89% | 1021.1 hPa | 2.29 mm | - | 118 W/m² | - |
| 1777489970 | 3.89° C | 88% | 1020.9 hPa | 2.29 mm | - | 62 W/m² | - |
| 1777489668 | 3.89° C | 86% | 1021.2 hPa | 1.78 mm | - | 28 W/m² | - |
| 1777489364 | 3.89° C | 85% | 1021.6 hPa | 2.29 mm | - | 20 W/m² | - |
| 1777489061 | 4.44° C | 83% | 1021.6 hPa | 3.56 mm | - | 18 W/m² | - |
| 1777488758 | 5° C | 82% | 1021.2 hPa | 3.05 mm | - | 17 W/m² | - |
| 1777488456 | 5° C | 80% | 1021.2 hPa | 2.29 mm | - | 20 W/m² | - |
| 1777488154 | 5.56° C | 78% | 1021.1 hPa | 0.51 mm | - | 20 W/m² | - |
| 1777487852 | 5.56° C | 78% | 1021 hPa | 0 mm | - | 20 W/m² | - |
| 1777487550 | 5.56° C | 78% | 1021.1 hPa | 0 mm | - | 14 W/m² | - |
| 1777487246 | 5.56° C | 75% | 1021 hPa | 0 mm | - | 19 W/m² | - |
| 1777486942 | 6.11° C | 74% | 1020.5 hPa | 0 mm | - | 51 W/m² | - |
| 1777486639 | 6.67° C | 73% | 1020.1 hPa | 0 mm | - | 95 W/m² | - |
| 1777486337 | 6.67° C | 73% | 1020 hPa | 0 mm | - | 263 W/m² | - |
| 1777486034 | 6.11° C | 75% | 1020.1 hPa | 0 mm | - | 345 W/m² | - |
| 1777485731 | 6.11° C | 75% | 1020 hPa | 0 mm | - | 442 W/m² | - |
| 1777485426 | 5.56° C | 76% | 1020.1 hPa | 0 mm | - | 451 W/m² | - |
| 1777485122 | 5.56° C | 77% | 1020.2 hPa | 0 mm | - | 292 W/m² | - |
| 1777484819 | 6.11° C | 76% | 1020.4 hPa | 0 mm | - | 395 W/m² | - |
| 1777484516 | 5.56° C | 77% | 1020.4 hPa | 0 mm | - | 335 W/m² | - |
| 1777484213 | 5.56° C | 79% | 1020.6 hPa | 0 mm | - | 470 W/m² | - |
| 1777483909 | 5.56° C | 79% | 1020.6 hPa | 0 mm | - | 264 W/m² | - |
* Rain latest hour (hover to see other rain measurements)
** Current wind speed in m/s (hover to see current wind gust speed)